sensor_id;sensor_type;location;lat;lon;timestamp;pressure;altitude;pressure_sealevel;temperature;humidity
6853;BME280;3465;42.144;24.722;2023-03-15T00:00:53;144523.75;;;6.41;74.11
6853;BME280;3465;42.144;24.722;2023-03-15T00:03:19;144515.00;;;6.38;74.61
6853;BME280;3465;42.144;24.722;2023-03-15T00:05:47;144493.81;;;6.29;74.71
6853;BME280;3465;42.144;24.722;2023-03-15T00:08:13;144508.78;;;6.35;75.30
6853;BME280;3465;42.144;24.722;2023-03-15T00:10:43;144498.78;;;6.31;75.58
6853;BME280;3465;42.144;24.722;2023-03-15T00:13:09;144452.66;;;6.13;75.79
6853;BME280;3465;42.144;24.722;2023-03-15T00:15:35;144483.81;;;6.25;76.66
6853;BME280;3465;42.144;24.722;2023-03-15T00:18:01;144468.84;;;6.19;76.88
6853;BME280;3465;42.144;24.722;2023-03-15T00:20:30;144428.94;;;6.03;76.76
6853;BME280;3465;42.144;24.722;2023-03-15T00:22:55;144468.84;;;6.19;76.92
6853;BME280;3465;42.144;24.722;2023-03-15T00:25:21;144457.66;;;6.15;77.57
6853;BME280;3465;42.144;24.722;2023-03-15T00:27:46;144431.41;;;6.04;78.15
6853;BME280;3465;42.144;24.722;2023-03-15T00:30:11;144463.84;;;6.17;77.88
6853;BME280;3465;42.144;24.722;2023-03-15T00:32:37;144396.53;;;5.90;78.79
6853;BME280;3465;42.144;24.722;2023-03-15T00:35:02;144360.31;;;5.75;79.77
6853;BME280;3465;42.144;24.722;2023-03-15T00:37:29;144336.63;;;5.66;80.23
6853;BME280;3465;42.144;24.722;2023-03-15T00:39:55;144329.16;;;5.63;80.81
6853;BME280;3465;42.144;24.722;2023-03-15T00:42:20;144241.91;;;5.28;81.43
6853;BME280;3465;42.144;24.722;2023-03-15T00:44:46;144299.19;;;5.51;83.03
6853;BME280;3465;42.144;24.722;2023-03-15T00:47:13;144263.06;;;5.36;84.79
6853;BME280;3465;42.144;24.722;2023-03-15T00:49:39;144280.53;;;5.43;82.39
6853;BME280;3465;42.144;24.722;2023-03-15T00:52:06;144296.72;;;5.50;83.29
6853;BME280;3465;42.144;24.722;2023-03-15T00:54:32;144289.25;;;5.47;85.72
6853;BME280;3465;42.144;24.722;2023-03-15T00:57:01;144259.31;;;5.35;87.06
6853;BME280;3465;42.144;24.722;2023-03-15T00:59:28;144285.53;;;5.45;86.85
6853;BME280;3465;42.144;24.722;2023-03-15T01:01:54;144281.78;;;5.44;87.53
6853;BME280;3465;42.144;24.722;2023-03-15T01:04:19;144275.53;;;5.41;89.46
6853;BME280;3465;42.144;24.722;2023-03-15T01:06:45;144269.31;;;5.39;91.49
6853;BME280;3465;42.144;24.722;2023-03-15T01:09:10;144199.50;;;5.11;93.57
6853;BME280;3465;42.144;24.722;2023-03-15T01:11:36;144207.00;;;5.14;93.07
6853;BME280;3465;42.144;24.722;2023-03-15T01:14:01;144226.94;;;5.22;93.16
6853;BME280;3465;42.144;24.722;2023-03-15T01:16:29;144220.69;;;5.19;92.95
6853;BME280;3465;42.144;24.722;2023-03-15T01:18:55;144218.22;;;5.18;91.76
6853;BME280;3465;42.144;24.722;2023-03-15T01:21:22;144219.44;;;5.19;89.24
6853;BME280;3465;42.144;24.722;2023-03-15T01:23:48;144180.81;;;5.03;89.78
6853;BME280;3465;42.144;24.722;2023-03-15T01:26:14;144203.22;;;5.12;89.32
6853;BME280;3465;42.144;24.722;2023-03-15T01:28:40;144207.00;;;5.14;88.07
6853;BME280;3465;42.144;24.722;2023-03-15T01:31:07;144205.75;;;5.13;87.00
6853;BME280;3465;42.144;24.722;2023-03-15T01:33:33;144194.53;;;5.09;86.75
6853;BME280;3465;42.144;24.722;2023-03-15T01:36:04;144145.94;;;4.89;87.66
6853;BME280;3465;42.144;24.722;2023-03-15T01:38:30;144107.34;;;4.74;88.82
6853;BME280;3465;42.144;24.722;2023-03-15T01:40:56;144088.63;;;4.66;88.68
6853;BME280;3465;42.144;24.722;2023-03-15T01:43:24;144111.06;;;4.75;88.47
6853;BME280;3465;42.144;24.722;2023-03-15T01:48:15;144015.19;;;4.36;90.24
6853;BME280;3465;42.144;24.722;2023-03-15T01:50:41;144012.66;;;4.35;90.80
6853;BME280;3465;42.144;24.722;2023-03-15T01:53:08;144008.91;;;4.34;91.17
6853;BME280;3465;42.144;24.722;2023-03-15T01:55:33;144025.13;;;4.40;92.02
6853;BME280;3465;42.144;24.722;2023-03-15T01:58:00;143976.53;;;4.21;92.20
6853;BME280;3465;42.144;24.722;2023-03-15T02:00:26;143990.25;;;4.26;93.10
6853;BME280;3465;42.144;24.722;2023-03-15T02:02:59;144015.19;;;4.36;93.05
6853;BME280;3465;42.144;24.722;2023-03-15T02:05:30;144020.13;;;4.38;92.54
6853;BME280;3465;42.144;24.722;2023-03-15T02:07:58;144022.63;;;4.39;92.15
6853;BME280;3465;42.144;24.722;2023-03-15T02:10:34;143984.00;;;4.24;92.70
6853;BME280;3465;42.144;24.722;2023-03-15T02:13:01;143952.88;;;4.11;92.29
6853;BME280;3465;42.144;24.722;2023-03-15T02:15:27;143964.09;;;4.16;92.71
6853;BME280;3465;42.144;24.722;2023-03-15T02:17:52;143925.50;;;4.00;93.48
6853;BME280;3465;42.144;24.722;2023-03-15T02:22:56;143903.13;;;3.91;93.07
6853;BME280;3465;42.144;24.722;2023-03-15T02:25:40;143862.03;;;3.75;95.05
6853;BME280;3465;42.144;24.722;2023-03-15T02:28:10;143865.75;;;3.76;95.59
6853;BME280;3465;42.144;24.722;2023-03-15T02:30:37;143883.22;;;3.83;95.54
6853;BME280;3465;42.144;24.722;2023-03-15T02:33:06;143879.47;;;3.82;95.80
6853;BME280;3465;42.144;24.722;2023-03-15T02:35:35;143872.00;;;3.79;96.10
6853;BME280;3465;42.144;24.722;2023-03-15T02:38:00;143869.50;;;3.78;96.10
6853;BME280;3465;42.144;24.722;2023-03-15T02:40:29;143873.22;;;3.79;95.87
6853;BME280;3465;42.144;24.722;2023-03-15T02:43:15;143875.75;;;3.80;95.96
6853;BME280;3465;42.144;24.722;2023-03-15T02:45:42;143865.75;;;3.76;96.40
6853;BME280;3465;42.144;24.722;2023-03-15T02:48:09;143857.03;;;3.73;97.51
6853;BME280;3465;42.144;24.722;2023-03-15T02:50:35;143867.03;;;3.77;97.58
6853;BME280;3465;42.144;24.722;2023-03-15T02:53:00;143854.56;;;3.72;98.48
6853;BME280;3465;42.144;24.722;2023-03-15T02:55:27;143845.84;;;3.68;98.77
6853;BME280;3465;42.144;24.722;2023-03-15T02:57:53;143840.88;;;3.66;99.69
6853;BME280;3465;42.144;24.722;2023-03-15T03:00:19;143834.66;;;3.64;99.79
6853;BME280;3465;42.144;24.722;2023-03-15T03:02:46;143835.94;;;3.64;100.00
6853;BME280;3465;42.144;24.722;2023-03-15T03:05:13;143835.94;;;3.64;100.00
6853;BME280;3465;42.144;24.722;2023-03-15T03:07:39;143802.31;;;3.51;100.00
6853;BME280;3465;42.144;24.722;2023-03-15T03:10:07;143813.50;;;3.55;100.00
6853;BME280;3465;42.144;24.722;2023-03-15T03:12:33;143806.03;;;3.52;100.00
6853;BME280;3465;42.144;24.722;2023-03-15T03:14:58;143811.03;;;3.54;100.00
6853;BME280;3465;42.144;24.722;2023-03-15T03:17:24;143801.03;;;3.50;100.00
6853;BME280;3465;42.144;24.722;2023-03-15T03:19:49;143833.41;;;3.63;100.00
6853;BME280;3465;42.144;24.722;2023-03-15T03:22:16;143828.47;;;3.61;100.00
6853;BME280;3465;42.144;24.722;2023-03-15T03:24:41;143814.75;;;3.56;100.00
6853;BME280;3465;42.144;24.722;2023-03-15T03:27:13;143828.47;;;3.61;100.00
6853;BME280;3465;42.144;24.722;2023-03-15T03:29:40;143721.44;;;3.18;100.00
6853;BME280;3465;42.144;24.722;2023-03-15T03:32:06;143833.41;;;3.63;100.00
6853;BME280;3465;42.144;24.722;2023-03-15T03:34:32;143827.19;;;3.61;100.00
6853;BME280;3465;42.144;24.722;2023-03-15T03:36:58;143824.69;;;3.60;100.00
6853;BME280;3465;42.144;24.722;2023-03-15T03:39:23;143806.03;;;3.52;100.00
6853;BME280;3465;42.144;24.722;2023-03-15T03:41:48;143816.00;;;3.56;100.00
6853;BME280;3465;42.144;24.722;2023-03-15T03:44:14;143797.31;;;3.49;100.00
6853;BME280;3465;42.144;24.722;2023-03-15T03:46:39;143769.94;;;3.38;100.00
6853;BME280;3465;42.144;24.722;2023-03-15T03:49:05;143802.31;;;3.51;100.00
6853;BME280;3465;42.144;24.722;2023-03-15T03:51:30;143802.31;;;3.51;100.00
6853;BME280;3465;42.144;24.722;2023-03-15T03:53:58;143811.03;;;3.54;100.00
6853;BME280;3465;42.144;24.722;2023-03-15T03:56:23;143806.03;;;3.52;100.00
6853;BME280;3465;42.144;24.722;2023-03-15T03:58:49;143787.38;;;3.45;100.00
6853;BME280;3465;42.144;24.722;2023-03-15T04:01:15;143762.50;;;3.35;100.00
6853;BME280;3465;42.144;24.722;2023-03-15T04:03:40;143680.41;;;3.02;100.00
6853;BME280;3465;42.144;24.722;2023-03-15T04:06:06;143745.06;;;3.28;100.00
6853;BME280;3465;42.144;24.722;2023-03-15T04:08:31;143731.41;;;3.22;100.00
6853;BME280;3465;42.144;24.722;2023-03-15T04:10:57;143732.66;;;3.23;100.00
6853;BME280;3465;42.144;24.722;2023-03-15T04:13:23;143737.59;;;3.25;100.00
6853;BME280;3465;42.144;24.722;2023-03-15T04:15:49;143733.88;;;3.23;100.00
6853;BME280;3465;42.144;24.722;2023-03-15T04:18:15;143725.16;;;3.20;100.00
6853;BME280;3465;42.144;24.722;2023-03-15T04:20:41;143715.22;;;3.16;100.00
6853;BME280;3465;42.144;24.722;2023-03-15T04:23:12;143712.75;;;3.15;100.00
6853;BME280;3465;42.144;24.722;2023-03-15T04:25:37;143704.03;;;3.11;100.00
6853;BME280;3465;42.144;24.722;2023-03-15T04:28:03;143661.72;;;2.94;100.00
6853;BME280;3465;42.144;24.722;2023-03-15T04:30:28;143671.69;;;2.98;100.00
6853;BME280;3465;42.144;24.722;2023-03-15T04:32:55;143700.31;;;3.10;100.00
6853;BME280;3465;42.144;24.722;2023-03-15T04:35:27;143697.81;;;3.09;100.00
6853;BME280;3465;42.144;24.722;2023-03-15T04:37:52;143689.13;;;3.05;100.00
6853;BME280;3465;42.144;24.722;2023-03-15T04:40:18;143682.88;;;3.03;100.00
6853;BME280;3465;42.144;24.722;2023-03-15T04:42:43;143704.03;;;3.11;100.00
6853;BME280;3465;42.144;24.722;2023-03-15T04:45:09;143738.84;;;3.25;100.00
6853;BME280;3465;42.144;24.722;2023-03-15T04:47:35;143728.94;;;3.21;100.00
6853;BME280;3465;42.144;24.722;2023-03-15T04:50:01;143747.56;;;3.29;100.00
6853;BME280;3465;42.144;24.722;2023-03-15T04:52:26;143751.31;;;3.30;100.00
6853;BME280;3465;42.144;24.722;2023-03-15T04:54:51;143746.31;;;3.28;100.00
6853;BME280;3465;42.144;24.722;2023-03-15T04:57:17;143723.94;;;3.19;100.00
6853;BME280;3465;42.144;24.722;2023-03-15T04:59:42;143745.06;;;3.28;100.00
6853;BME280;3465;42.144;24.722;2023-03-15T05:02:08;143755.03;;;3.32;100.00
6853;BME280;3465;42.144;24.722;2023-03-15T05:04:33;143766.22;;;3.36;100.00
6853;BME280;3465;42.144;24.722;2023-03-15T05:06:58;143789.84;;;3.46;100.00
6853;BME280;3465;42.144;24.722;2023-03-15T05:09:27;143791.13;;;3.46;100.00
6853;BME280;3465;42.144;24.722;2023-03-15T05:11:52;143802.31;;;3.51;100.00
6853;BME280;3465;42.144;24.722;2023-03-15T05:14:17;143796.09;;;3.48;100.00
6853;BME280;3465;42.144;24.722;2023-03-15T05:16:43;143801.03;;;3.50;100.00
6853;BME280;3465;42.144;24.722;2023-03-15T05:19:08;143786.13;;;3.44;100.00
6853;BME280;3465;42.144;24.722;2023-03-15T05:21:34;143747.56;;;3.29;100.00
6853;BME280;3465;42.144;24.722;2023-03-15T05:23:59;143758.75;;;3.33;100.00
6853;BME280;3465;42.144;24.722;2023-03-15T05:26:24;143766.22;;;3.36;100.00
6853;BME280;3465;42.144;24.722;2023-03-15T05:28:50;143736.38;;;3.24;100.00
6853;BME280;3465;42.144;24.722;2023-03-15T05:31:16;143721.44;;;3.18;100.00
6853;BME280;3465;42.144;24.722;2023-03-15T05:33:42;143666.72;;;2.96;100.00
6853;BME280;3465;42.144;24.722;2023-03-15T05:36:11;143680.41;;;3.02;100.00
6853;BME280;3465;42.144;24.722;2023-03-15T05:38:39;143707.78;;;3.13;100.00
6853;BME280;3465;42.144;24.722;2023-03-15T05:41:08;143679.16;;;3.01;100.00
6853;BME280;3465;42.144;24.722;2023-03-15T05:43:33;143713.97;;;3.15;100.00
6853;BME280;3465;42.144;24.722;2023-03-15T05:45:59;143669.25;;;2.97;100.00
6853;BME280;3465;42.144;24.722;2023-03-15T05:48:24;143738.84;;;3.25;100.00
6853;BME280;3465;42.144;24.722;2023-03-15T05:50:50;143746.31;;;3.28;100.00
6853;BME280;3465;42.144;24.722;2023-03-15T05:53:15;143730.16;;;3.22;100.00
6853;BME280;3465;42.144;24.722;2023-03-15T05:55:40;143764.97;;;3.36;100.00
6853;BME280;3465;42.144;24.722;2023-03-15T05:58:06;143781.13;;;3.42;100.00
6853;BME280;3465;42.144;24.722;2023-03-15T06:00:31;143792.38;;;3.47;100.00
6853;BME280;3465;42.144;24.722;2023-03-15T06:02:57;143828.47;;;3.61;100.00
6853;BME280;3465;42.144;24.722;2023-03-15T06:05:23;143888.19;;;3.85;100.00
6853;BME280;3465;42.144;24.722;2023-03-15T06:07:48;144013.91;;;4.36;100.00
6853;BME280;3465;42.144;24.722;2023-03-15T06:10:14;144274.31;;;5.41;100.00
6853;BME280;3465;42.144;24.722;2023-03-15T06:12:39;144663.50;;;6.97;97.21
6853;BME280;3465;42.144;24.722;2023-03-15T06:15:05;145164.56;;;8.99;84.97
6853;BME280;3465;42.144;24.722;2023-03-15T06:17:31;145561.31;;;10.58;71.38
6853;BME280;3465;42.144;24.722;2023-03-15T06:19:56;145646.50;;;10.92;67.84
6853;BME280;3465;42.144;24.722;2023-03-15T06:22:22;145746.72;;;11.32;66.55
6853;BME280;3465;42.144;24.722;2023-03-15T06:24:48;145756.75;;;11.36;62.61
6853;BME280;3465;42.144;24.722;2023-03-15T06:27:14;145637.72;;;10.88;65.83
6853;BME280;3465;42.144;24.722;2023-03-15T06:29:40;145565.06;;;10.59;67.45
6853;BME280;3465;42.144;24.722;2023-03-15T06:32:06;145393.53;;;9.90;71.20
6853;BME280;3465;42.144;24.722;2023-03-15T06:34:31;145233.38;;;9.26;73.81
6853;BME280;3465;42.144;24.722;2023-03-15T06:36:57;145187.06;;;9.08;75.48
6853;BME280;3465;42.144;24.722;2023-03-15T06:39:22;145045.81;;;8.51;77.47
6853;BME280;3465;42.144;24.722;2023-03-15T06:41:50;144878.28;;;7.84;82.03
6853;BME280;3465;42.144;24.722;2023-03-15T06:44:18;145027.03;;;8.43;81.18
6853;BME280;3465;42.144;24.722;2023-03-15T06:46:44;144949.53;;;8.12;79.55
6853;BME280;3465;42.144;24.722;2023-03-15T06:49:10;144947.00;;;8.11;80.23
6853;BME280;3465;42.144;24.722;2023-03-15T06:51:35;144949.53;;;8.12;79.98
6853;BME280;3465;42.144;24.722;2023-03-15T06:54:01;145062.00;;;8.57;79.33
6853;BME280;3465;42.144;24.722;2023-03-15T06:56:26;145143.28;;;8.90;77.06
6853;BME280;3465;42.144;24.722;2023-03-15T06:58:52;145434.78;;;10.07;72.43
6853;BME280;3465;42.144;24.722;2023-03-15T07:01:17;145645.25;;;10.91;67.28
6853;BME280;3465;42.144;24.722;2023-03-15T07:03:42;145974.94;;;12.23;61.13
6853;BME280;3465;42.144;24.722;2023-03-15T07:06:08;145899.66;;;11.93;59.87
6853;BME280;3465;42.144;24.722;2023-03-15T07:08:34;145747.94;;;11.32;61.86
6853;BME280;3465;42.144;24.722;2023-03-15T07:10:59;145646.50;;;10.92;63.10
6853;BME280;3465;42.144;24.722;2023-03-15T07:13:26;145642.69;;;10.90;63.96
6853;BME280;3465;42.144;24.722;2023-03-15T07:15:52;145463.66;;;10.19;64.73
6853;BME280;3465;42.144;24.722;2023-03-15T07:18:18;145590.13;;;10.69;64.96
6853;BME280;3465;42.144;24.722;2023-03-15T07:20:44;145734.19;;;11.27;63.88
6853;BME280;3465;42.144;24.722;2023-03-15T07:23:09;146007.56;;;12.36;60.30
6853;BME280;3465;42.144;24.722;2023-03-15T07:25:34;146002.53;;;12.34;58.82
6853;BME280;3465;42.144;24.722;2023-03-15T07:28:00;146007.56;;;12.36;58.48
6853;BME280;3465;42.144;24.722;2023-03-15T07:30:25;145870.88;;;11.82;59.17
6853;BME280;3465;42.144;24.722;2023-03-15T07:32:51;145944.81;;;12.11;59.29
6853;BME280;3465;42.144;24.722;2023-03-15T07:35:17;146030.09;;;12.45;57.42
6853;BME280;3465;42.144;24.722;2023-03-15T07:37:42;145937.28;;;12.08;59.00
6853;BME280;3465;42.144;24.722;2023-03-15T07:40:08;145654.00;;;10.95;61.04
6853;BME280;3465;42.144;24.722;2023-03-15T07:42:40;145573.84;;;10.63;65.33
6853;BME280;3465;42.144;24.722;2023-03-15T07:45:07;145761.75;;;11.38;63.37
6853;BME280;3465;42.144;24.722;2023-03-15T07:47:32;145662.75;;;10.98;63.68
6853;BME280;3465;42.144;24.722;2023-03-15T07:49:58;145553.81;;;10.55;65.42
6853;BME280;3465;42.144;24.722;2023-03-15T07:52:24;145476.16;;;10.24;67.34
6853;BME280;3465;42.144;24.722;2023-03-15T07:54:50;145217.09;;;9.20;71.58
6853;BME280;3465;42.144;24.722;2023-03-15T07:57:15;145355.97;;;9.75;71.49
6853;BME280;3465;42.144;24.722;2023-03-15T07:59:41;145438.59;;;10.08;70.22
6853;BME280;3465;42.144;24.722;2023-03-15T08:02:10;145396.00;;;9.91;70.60
6853;BME280;3465;42.144;24.722;2023-03-15T08:04:36;145580.09;;;10.65;68.98
6853;BME280;3465;42.144;24.722;2023-03-15T08:07:01;145535.00;;;10.47;67.81
6853;BME280;3465;42.144;24.722;2023-03-15T08:09:26;145608.91;;;10.77;66.78
6853;BME280;3465;42.144;24.722;2023-03-15T08:11:52;145417.31;;;10.00;68.98
6853;BME280;3465;42.144;24.722;2023-03-15T08:14:17;145265.91;;;9.39;72.39
6853;BME280;3465;42.144;24.722;2023-03-15T08:16:43;145358.44;;;9.76;73.82
6853;BME280;3465;42.144;24.722;2023-03-15T08:19:08;145637.72;;;10.88;67.74
6853;BME280;3465;42.144;24.722;2023-03-15T08:21:34;145795.56;;;11.51;63.16
6853;BME280;3465;42.144;24.722;2023-03-15T08:24:00;146112.88;;;12.78;60.17
6853;BME280;3465;42.144;24.722;2023-03-15T08:26:25;146304.97;;;13.55;55.61
6853;BME280;3465;42.144;24.722;2023-03-15T08:28:50;146492.19;;;14.30;54.14
6853;BME280;3465;42.144;24.722;2023-03-15T08:31:16;146567.56;;;14.60;52.13
6853;BME280;3465;42.144;24.722;2023-03-15T08:33:42;146267.34;;;13.40;54.43
6853;BME280;3465;42.144;24.722;2023-03-15T08:36:07;145984.94;;;12.27;57.70
6853;BME280;3465;42.144;24.722;2023-03-15T08:38:33;145741.72;;;11.30;61.30
6853;BME280;3465;42.144;24.722;2023-03-15T08:40:59;145961.13;;;12.18;61.30
6853;BME280;3465;42.144;24.722;2023-03-15T08:43:25;145993.72;;;12.31;59.34
6853;BME280;3465;42.144;24.722;2023-03-15T08:45:50;146287.41;;;13.48;56.53
6853;BME280;3465;42.144;24.722;2023-03-15T08:48:16;146105.38;;;12.75;56.49
6853;BME280;3465;42.144;24.722;2023-03-15T08:50:42;145873.34;;;11.83;58.77
6853;BME280;3465;42.144;24.722;2023-03-15T08:53:08;145729.19;;;11.25;61.54
6853;BME280;3465;42.144;24.722;2023-03-15T08:55:35;145654.00;;;10.95;63.03
6853;BME280;3465;42.144;24.722;2023-03-15T08:58:02;145666.53;;;11.00;63.71
6853;BME280;3465;42.144;24.722;2023-03-15T09:00:27;145762.97;;;11.38;63.43
6853;BME280;3465;42.144;24.722;2023-03-15T09:02:53;146074.00;;;12.63;60.06
6853;BME280;3465;42.144;24.722;2023-03-15T09:05:20;146346.41;;;13.72;54.44
6853;BME280;3465;42.144;24.722;2023-03-15T09:07:46;146482.09;;;14.26;51.78
6853;BME280;3465;42.144;24.722;2023-03-15T09:10:13;146214.59;;;13.19;52.15
6853;BME280;3465;42.144;24.722;2023-03-15T09:12:41;146263.56;;;13.39;53.29
6853;BME280;3465;42.144;24.722;2023-03-15T09:15:07;146318.78;;;13.61;52.23
6853;BME280;3465;42.144;24.722;2023-03-15T09:17:32;146543.69;;;14.51;49.37
6853;BME280;3465;42.144;24.722;2023-03-15T09:19:58;146961.19;;;16.17;46.17
6853;BME280;3465;42.144;24.722;2023-03-15T09:22:23;147121.09;;;16.81;43.98
6853;BME280;3465;42.144;24.722;2023-03-15T09:24:49;147213.03;;;17.17;42.26
6853;BME280;3465;42.144;24.722;2023-03-15T09:27:14;147153.84;;;16.94;42.09
6853;BME280;3465;42.144;24.722;2023-03-15T09:29:40;146683.19;;;15.06;44.16
6853;BME280;3465;42.144;24.722;2023-03-15T09:32:05;146407.97;;;13.96;47.72
6853;BME280;3465;42.144;24.722;2023-03-15T09:34:31;146597.72;;;14.72;47.25
6853;BME280;3465;42.144;24.722;2023-03-15T09:36:56;146836.63;;;15.67;44.65
6853;BME280;3465;42.144;24.722;2023-03-15T09:39:22;147074.50;;;16.62;42.43
6853;BME280;3465;42.144;24.722;2023-03-15T09:41:54;147092.16;;;16.69;41.65
6853;BME280;3465;42.144;24.722;2023-03-15T09:47:48;147675.63;;;19.02;38.55
6853;BME280;3465;42.144;24.722;2023-03-15T09:50:12;147681.97;;;19.04;36.53
6853;BME280;3465;42.144;24.722;2023-03-15T09:53:11;147506.63;;;18.34;38.34
6853;BME280;3465;42.144;24.722;2023-03-15T09:55:38;147771.53;;;19.40;37.45
6853;BME280;3465;42.144;24.722;2023-03-15T09:58:10;147810.69;;;19.55;35.79
6853;BME280;3465;42.144;24.722;2023-03-15T10:00:53;147801.84;;;19.52;35.54
6853;BME280;3465;42.144;24.722;2023-03-15T10:03:28;147973.50;;;20.20;34.86
6853;BME280;3465;42.144;24.722;2023-03-15T10:05:59;148146.53;;;20.89;34.12
6853;BME280;3465;42.144;24.722;2023-03-15T10:08:26;148236.25;;;21.24;32.80
6853;BME280;3465;42.144;24.722;2023-03-15T10:10:56;147869.97;;;19.79;33.97
6853;BME280;3465;42.144;24.722;2023-03-15T10:25:12;147163.91;;;16.98;39.98
6853;BME280;3465;42.144;24.722;2023-03-15T10:30:22;146981.31;;;16.25;42.25
6853;BME280;3465;42.144;24.722;2023-03-15T10:32:53;146902.06;;;15.94;42.80
6853;BME280;3465;42.144;24.722;2023-03-15T10:35:20;146912.16;;;15.98;42.92
6853;BME280;3465;42.144;24.722;2023-03-15T10:37:46;146630.41;;;14.85;43.45
6853;BME280;3465;42.144;24.722;2023-03-15T10:40:13;146648.00;;;14.92;44.67
6853;BME280;3465;42.144;24.722;2023-03-15T10:42:45;146602.72;;;14.74;44.00
6853;BME280;3465;42.144;24.722;2023-03-15T10:45:22;146600.22;;;14.73;44.34
6853;BME280;3465;42.144;24.722;2023-03-15T10:47:49;146560.00;;;14.57;45.49
6853;BME280;3465;42.144;24.722;2023-03-15T10:50:37;146504.75;;;14.35;46.43
6853;BME280;3465;42.144;24.722;2023-03-15T10:53:08;146567.56;;;14.60;46.48
6853;BME280;3465;42.144;24.722;2023-03-15T10:55:40;146586.38;;;14.68;46.32
6853;BME280;3465;42.144;24.722;2023-03-15T11:01:24;146632.91;;;14.86;45.74
6853;BME280;3465;42.144;24.722;2023-03-15T11:06:45;146693.25;;;15.10;45.47
6853;BME280;3465;42.144;24.722;2023-03-15T11:09:17;146710.88;;;15.17;45.31
6853;BME280;3465;42.144;24.722;2023-03-15T11:12:06;146763.69;;;15.38;44.22
6853;BME280;3465;42.144;24.722;2023-03-15T11:14:41;146827.81;;;15.64;45.28
6853;BME280;3465;42.144;24.722;2023-03-15T11:17:15;146919.69;;;16.01;44.60
6853;BME280;3465;42.144;24.722;2023-03-15T11:19:45;146907.09;;;15.96;44.17
6853;BME280;3465;42.144;24.722;2023-03-15T11:22:14;146812.75;;;15.58;44.54
6853;BME280;3465;42.144;24.722;2023-03-15T11:24:39;146748.56;;;15.32;45.79
6853;BME280;3465;42.144;24.722;2023-03-15T11:27:13;146781.31;;;15.45;45.87
6853;BME280;3465;42.144;24.722;2023-03-15T11:29:43;146725.94;;;15.23;47.08
6853;BME280;3465;42.144;24.722;2023-03-15T11:32:20;146814.03;;;15.58;45.98
6853;BME280;3465;42.144;24.722;2023-03-15T11:35:09;146902.06;;;15.94;44.88
6853;BME280;3465;42.144;24.722;2023-03-15T11:37:37;146917.16;;;16.00;44.70
6853;BME280;3465;42.144;24.722;2023-03-15T11:43:03;146752.34;;;15.34;45.50
6853;BME280;3465;42.144;24.722;2023-03-15T11:45:35;146713.38;;;15.18;46.82
6853;BME280;3465;42.144;24.722;2023-03-15T11:50:53;146542.41;;;14.50;47.54
6853;BME280;3465;42.144;24.722;2023-03-15T11:53:20;146561.28;;;14.58;47.76
6853;BME280;3465;42.144;24.722;2023-03-15T11:55:49;146533.66;;;14.47;47.79
6853;BME280;3465;42.144;24.722;2023-03-15T11:58:40;146565.06;;;14.59;48.01
6853;BME280;3465;42.144;24.722;2023-03-15T12:01:09;146560.00;;;14.57;48.17
6853;BME280;3465;42.144;24.722;2023-03-15T12:03:42;146497.22;;;14.32;48.74
6853;BME280;3465;42.144;24.722;2023-03-15T12:16:21;146434.31;;;14.07;50.72
6853;BME280;3465;42.144;24.722;2023-03-15T12:18:47;146402.94;;;13.94;51.00
6853;BME280;3465;42.144;24.722;2023-03-15T12:21:30;146461.94;;;14.18;50.83
6853;BME280;3465;42.144;24.722;2023-03-15T12:24:02;146445.63;;;14.11;50.03
6853;BME280;3465;42.144;24.722;2023-03-15T12:26:39;146527.34;;;14.44;49.78
6853;BME280;3465;42.144;24.722;2023-03-15T12:34:53;146454.41;;;14.15;49.77
6853;BME280;3465;42.144;24.722;2023-03-15T12:59:03;146369.06;;;13.81;48.37
6853;BME280;3465;42.144;24.722;2023-03-15T13:01:30;146364.00;;;13.79;48.26
6853;BME280;3465;42.144;24.722;2023-03-15T13:03:57;146338.88;;;13.69;48.90
6853;BME280;3465;42.144;24.722;2023-03-15T13:06:49;146331.34;;;13.66;48.80
6853;BME280;3465;42.144;24.722;2023-03-15T13:12:16;146320.06;;;13.61;50.29
6853;BME280;3465;42.144;24.722;2023-03-15T13:26:02;146296.22;;;13.52;50.83
6853;BME280;3465;42.144;24.722;2023-03-15T13:28:41;146272.38;;;13.42;50.77
6853;BME280;3465;42.144;24.722;2023-03-15T13:31:24;146293.66;;;13.51;50.60
6853;BME280;3465;42.144;24.722;2023-03-15T13:33:52;146396.66;;;13.92;49.42
6853;BME280;3465;42.144;24.722;2023-03-15T13:39:15;146322.56;;;13.62;49.37
6853;BME280;3465;42.144;24.722;2023-03-15T13:41:41;146326.31;;;13.64;49.84
6853;BME280;3465;42.144;24.722;2023-03-15T13:44:15;146370.28;;;13.81;50.20
6853;BME280;3465;42.144;24.722;2023-03-15T13:46:42;146372.81;;;13.82;49.95
6853;BME280;3465;42.144;24.722;2023-03-15T13:49:10;146372.81;;;13.82;50.71
6853;BME280;3465;42.144;24.722;2023-03-15T13:51:37;146392.91;;;13.90;50.14
6853;BME280;3465;42.144;24.722;2023-03-15T13:54:04;146436.88;;;14.08;49.56
6853;BME280;3465;42.144;24.722;2023-03-15T13:56:35;146453.19;;;14.14;49.55
6853;BME280;3465;42.144;24.722;2023-03-15T13:59:02;146465.72;;;14.19;49.23
6853;BME280;3465;42.144;24.722;2023-03-15T14:01:29;146298.72;;;13.53;48.87
6853;BME280;3465;42.144;24.722;2023-03-15T14:04:05;146399.16;;;13.93;49.15
6853;BME280;3465;42.144;24.722;2023-03-15T14:06:31;146282.38;;;13.46;49.60
6853;BME280;3465;42.144;24.722;2023-03-15T14:09:07;146291.19;;;13.50;49.12
6853;BME280;3465;42.144;24.722;2023-03-15T14:11:36;146323.84;;;13.63;49.43
6853;BME280;3465;42.144;24.722;2023-03-15T14:14:15;146316.31;;;13.60;50.37
6853;BME280;3465;42.144;24.722;2023-03-15T14:16:45;146311.28;;;13.58;49.10
6853;BME280;3465;42.144;24.722;2023-03-15T14:19:22;146371.53;;;13.82;49.62
6853;BME280;3465;42.144;24.722;2023-03-15T14:24:39;146335.13;;;13.67;49.13
6853;BME280;3465;42.144;24.722;2023-03-15T14:27:14;146406.69;;;13.96;49.83
6853;BME280;3465;42.144;24.722;2023-03-15T14:29:55;146404.19;;;13.95;49.44
6853;BME280;3465;42.144;24.722;2023-03-15T14:32:28;146405.41;;;13.95;49.27
6853;BME280;3465;42.144;24.722;2023-03-15T14:35:23;146441.84;;;14.10;48.52
6853;BME280;3465;42.144;24.722;2023-03-15T14:38:05;146446.88;;;14.12;48.83